< < Back
Terminal Aerodrome Forecast


Current Version              Previous Versions:   1  2  3  4  5  6  7  8  9  

Terminal Aerodrome Forecast

139
FTUS42 KCHS 260527
TAFSAV
TAF
KSAV 260527Z 2606/2706 17004KT P6SM FEW250
     FM261800 13008KT P6SM SCT060
     FM270100 14003KT P6SM SKC=



Latest METAR

807
SAUS80 KWBC 260800 RRA
MTRSAV
METAR KSAV 260753Z AUTO 00000KT 10SM CLR 19/18 A3018 RMK AO2 SLP218
T01940178 TSNO


USA.gov is the U.S. government's official web portal to all federal, state and local government web resources and services.